Time;durP1;ratioP1;P1;durP2;ratioP2;P2;SDS_P1;SDS_P2;PMS_P1;PMS_P2;Temp;Humidity;BMP_temperature;BMP_pressure;BME280_temperature;BME280_humidity;BME280_pressure;Samples;Min_cycle;Max_cycle;Signal;HPM_P1;HPM_P2
2024/02/05 00:01:58;;;;;;;27.00;12.07;;;;;;;4.15;100.00;97644.31;5056983;28;20035;-78
2024/02/05 00:04:24;;;;;;;23.80;10.85;;;;;;;4.21;100.00;97649.41;5056501;28;20042;-78
2024/02/05 00:06:50;;;;;;;27.25;13.20;;;;;;;4.40;100.00;97668.16;5056894;28;20032;-78
2024/02/05 00:09:15;;;;;;;28.48;13.45;;;;;;;4.39;100.00;97646.09;5056690;28;20078;-77
2024/02/05 00:11:41;;;;;;;18.27;9.20;;;;;;;4.70;100.00;97654.66;5056537;28;20115;-78
2024/02/05 00:14:06;;;;;;;26.58;14.05;;;;;;;4.89;100.00;97646.88;5056476;28;20028;-78
2024/02/05 00:16:32;;;;;;;16.05;8.20;;;;;;;5.10;100.00;97639.88;5056614;28;20468;-80
2024/02/05 00:18:58;;;;;;;27.75;12.93;;;;;;;5.20;100.00;97620.06;5056734;28;20074;-77
2024/02/05 00:21:24;;;;;;;15.55;7.35;;;;;;;5.34;100.00;97607.97;5056328;28;20029;-78
2024/02/05 00:23:49;;;;;;;20.00;10.18;;;;;;;5.71;100.00;97615.28;5056407;28;20496;-79
2024/02/05 00:26:15;;;;;;;22.55;9.82;;;;;;;5.78;100.00;97598.16;5074158;28;20124;-78
2024/02/05 00:28:40;;;;;;;18.38;8.75;;;;;;;5.90;100.00;97608.31;5056342;28;20066;-77
2024/02/05 00:31:06;;;;;;;17.23;9.07;;;;;;;5.94;100.00;97593.09;5056315;28;20067;-78
2024/02/05 00:33:32;;;;;;;15.48;8.30;;;;;;;6.02;100.00;97598.09;5072611;28;20020;-78
2024/02/05 00:35:57;;;;;;;18.27;8.90;;;;;;;6.05;100.00;97608.56;5056472;28;20024;-78
2024/02/05 00:38:23;;;;;;;17.80;8.65;;;;;;;5.91;100.00;97586.13;5056110;28;20039;-78
2024/02/05 00:40:48;;;;;;;9.38;4.57;;;;;;;5.97;100.00;97600.94;5056256;28;20445;-78
2024/02/05 00:43:14;;;;;;;13.43;6.57;;;;;;;6.06;100.00;97594.38;5072836;28;20036;-78
2024/02/05 00:45:40;;;;;;;12.68;6.30;;;;;;;5.90;100.00;97562.31;5055771;28;20403;-78
2024/02/05 00:48:06;;;;;;;17.90;7.32;;;;;;;5.82;100.00;97578.53;5055955;28;20032;-79
2024/02/05 00:50:31;;;;;;;19.23;7.32;;;;;;;5.66;100.00;97568.66;5055479;28;20035;-78
2024/02/05 00:52:57;;;;;;;24.50;9.73;;;;;;;5.55;100.00;97565.56;5072569;28;20025;-78
2024/02/05 00:55:22;;;;;;;24.15;11.35;;;;;;;5.54;100.00;97575.31;5055699;28;20040;-77
2024/02/05 00:57:48;;;;;;;37.75;15.73;;;;;;;5.43;100.00;97577.56;5055529;28;20035;-79
2024/02/05 01:00:14;;;;;;;56.60;22.38;;;;;;;5.41;100.00;97593.50;5055698;28;20111;-78
2024/02/05 01:02:41;;;;;;;40.25;16.83;;;;;;;5.39;100.00;97581.25;5055399;28;20553;-78
2024/02/05 01:05:07;;;;;;;40.13;18.38;;;;;;;5.47;100.00;97595.09;5055561;28;20036;-78
2024/02/05 01:07:33;;;;;;;44.80;18.02;;;;;;;5.43;100.00;97572.25;5055321;28;20054;-78
2024/02/05 01:09:59;;;;;;;58.08;22.55;;;;;;;5.42;100.00;97574.03;5055337;28;20550;-78
2024/02/05 01:12:25;;;;;;;56.92;23.83;;;;;;;5.27;100.00;97563.19;5072317;28;20032;-78
2024/02/05 01:14:50;;;;;;;47.72;19.27;;;;;;;5.44;100.00;97571.34;5055356;28;20509;-78
2024/02/05 01:17:18;;;;;;;47.13;17.80;;;;;;;5.49;100.00;97572.00;5055414;28;20028;-76
2024/02/05 01:19:44;;;;;;;30.25;12.48;;;;;;;5.62;100.00;97562.59;5072041;28;20591;-77
2024/02/05 01:22:10;;;;;;;30.83;13.52;;;;;;;5.66;100.00;97558.88;5072332;28;20025;-78
2024/02/05 01:24:36;;;;;;;31.55;13.35;;;;;;;5.57;100.00;97563.72;5055264;28;20028;-78
2024/02/05 01:27:01;;;;;;;28.10;9.57;;;;;;;5.42;100.00;97531.59;5072005;28;20500;-78
2024/02/05 01:29:27;;;;;;;8.35;3.95;;;;;;;5.55;100.00;97545.22;5055252;28;20029;-78
2024/02/05 01:31:53;;;;;;;14.55;6.70;;;;;;;5.76;100.00;97539.00;5055337;28;20033;-78
2024/02/05 01:34:18;;;;;;;13.98;5.65;;;;;;;5.89;100.00;97534.91;5072052;28;20062;-78
2024/02/05 01:36:44;;;;;;;13.27;6.25;;;;;;;6.00;100.00;97539.72;5071551;28;20032;-78
2024/02/05 01:39:10;;;;;;;16.63;8.27;;;;;;;6.06;100.00;97541.28;5054985;28;20029;-78
2024/02/05 01:41:36;;;;;;;12.02;5.95;;;;;;;6.05;100.00;97536.91;5071883;28;20459;-78
2024/02/05 01:44:01;;;;;;;6.63;3.47;;;;;;;6.24;100.00;97532.50;5071695;28;20025;-78
2024/02/05 01:46:29;;;;;;;7.45;3.83;;;;;;;6.76;100.00;97531.81;5053768;28;20511;-78
2024/02/05 01:48:59;;;;;;;11.25;4.28;;;;;;;6.83;100.00;97522.59;5071307;28;20116;-78
2024/02/05 01:51:25;;;;;;;6.93;3.60;;;;;;;6.75;100.00;97506.16;5054882;28;20036;-78
2024/02/05 01:53:53;;;;;;;5.85;2.45;;;;;;;6.59;100.00;97505.16;5071196;28;20100;-78
2024/02/05 01:56:22;;;;;;;4.82;2.80;;;;;;;6.50;100.00;97497.63;5071211;28;20526;-77
2024/02/05 01:58:48;;;;;;;5.65;3.10;;;;;;;6.51;100.00;97524.13;5054356;28;20075;-78
2024/02/05 02:01:13;;;;;;;7.10;3.13;;;;;;;6.54;100.00;97513.38;5071312;28;20107;-78
2024/02/05 02:03:40;;;;;;;4.20;2.78;;;;;;;6.76;100.00;97521.19;5054686;28;20050;-78
2024/02/05 02:06:09;;;;;;;6.15;2.85;;;;;;;7.00;100.00;97504.06;5054527;28;20408;-78
2024/02/05 02:08:37;;;;;;;6.60;3.40;;;;;;;7.35;100.00;97488.16;5054451;28;20199;-77
2024/02/05 02:11:03;;;;;;;5.93;2.70;;;;;;;7.74;100.00;97495.91;5071072;28;20025;-78
2024/02/05 02:13:30;;;;;;;7.20;3.15;;;;;;;7.90;100.00;97500.38;5072203;28;20065;-78
2024/02/05 02:15:57;;;;;;;7.00;2.92;;;;;;;8.03;100.00;97477.47;5053880;28;20115;-78
2024/02/05 02:18:25;;;;;;;7.60;3.08;;;;;;;8.16;100.00;97483.88;5071091;28;20111;-78
2024/02/05 02:20:52;;;;;;;4.45;2.53;;;;;;;8.17;100.00;97477.63;5071098;28;20016;-79
2024/02/05 02:23:29;;;;;;;6.35;3.10;;;;;;;8.20;100.00;97463.25;5070984;28;20028;-78
2024/02/05 02:25:59;;;;;;;5.07;3.08;;;;;;;8.34;100.00;97462.53;5054606;28;20040;-79
2024/02/05 02:28:25;;;;;;;5.28;2.75;;;;;;;8.40;100.00;97460.41;5054296;28;20029;-77
2024/02/05 02:30:52;;;;;;;5.65;2.47;;;;;;;8.58;100.00;97471.88;5071128;28;20123;-79
2024/02/05 02:33:24;;;;;;;5.20;2.58;;;;;;;8.64;100.00;97471.53;5074212;28;20512;-78
2024/02/05 02:36:00;;;;;;;7.88;3.20;;;;;;;8.62;100.00;97460.94;5073827;28;20036;-78
2024/02/05 02:38:34;;;;;;;7.80;3.47;;;;;;;8.66;100.00;97446.50;5074302;28;20059;-78
2024/02/05 02:41:03;;;;;;;8.20;3.50;;;;;;;8.76;100.00;97443.31;5088899;28;20085;-80
2024/02/05 02:43:33;;;;;;;8.02;3.78;;;;;;;8.81;100.00;97434.09;5073989;28;20137;-80
2024/02/05 02:46:00;;;;;;;6.63;2.90;;;;;;;8.87;100.00;97441.75;5057191;28;20024;-81
2024/02/05 02:48:26;;;;;;;6.05;3.13;;;;;;;8.99;100.00;97429.53;5074242;28;20030;-79
2024/02/05 02:50:51;;;;;;;6.25;2.85;;;;;;;9.04;100.00;97433.66;5074208;28;20441;-80
2024/02/05 02:53:17;;;;;;;7.30;2.83;;;;;;;8.98;100.00;97422.47;5090929;28;20024;-82
2024/02/05 02:55:43;;;;;;;4.45;2.50;;;;;;;9.05;100.00;97429.16;5073510;28;20032;-80
2024/02/05 02:58:09;;;;;;;5.15;2.92;;;;;;;9.12;100.00;97431.41;5090439;28;20026;-81
2024/02/05 03:00:35;;;;;;;4.78;2.40;;;;;;;9.17;100.00;97431.97;5090809;28;20039;-80
2024/02/05 03:03:01;;;;;;;6.60;3.20;;;;;;;9.19;100.00;97426.56;5055691;28;20033;-81
2024/02/05 03:05:27;;;;;;;7.10;3.50;;;;;;;9.24;100.00;97417.34;5070067;28;20107;-79
2024/02/05 03:07:52;;;;;;;8.95;3.78;;;;;;;9.31;100.00;97412.50;5054659;28;20056;-80
2024/02/05 03:10:18;;;;;;;8.60;3.70;;;;;;;9.40;100.00;97411.09;5060114;28;20078;-81
2024/02/05 03:12:44;;;;;;;9.45;3.72;;;;;;;9.47;100.00;97399.97;5053638;28;20024;-80
2024/02/05 03:15:10;;;;;;;8.48;3.88;;;;;;;9.66;100.00;97408.56;5033558;28;20029;-80
2024/02/05 03:17:35;;;;;;;7.93;3.17;;;;;;;9.86;100.00;97395.81;5079449;28;20028;-80
2024/02/05 03:20:01;;;;;;;6.80;3.60;;;;;;;9.93;100.00;97395.38;5073804;28;20097;-80
2024/02/05 03:22:27;;;;;;;6.90;3.22;;;;;;;9.94;100.00;97396.19;5091054;28;20122;-80
2024/02/05 03:24:52;;;;;;;4.88;2.50;;;;;;;9.96;100.00;97380.94;5073990;28;20036;-80
2024/02/05 03:27:18;;;;;;;7.07;2.47;;;;;;;10.19;100.00;97399.97;5072979;28;20044;-79
2024/02/05 03:29:44;;;;;;;4.20;2.15;;;;;;;10.28;100.00;97388.69;5091440;28;20429;-80
2024/02/05 03:32:09;;;;;;;4.47;1.85;;;;;;;10.44;99.39;97390.38;5090306;28;20024;-81
2024/02/05 03:34:35;;;;;;;2.83;1.52;;;;;;;10.67;94.35;97382.63;5073504;28;20032;-79
2024/02/05 03:37:01;;;;;;;3.08;1.98;;;;;;;10.95;90.36;97376.28;5073422;28;20027;-79
2024/02/05 03:39:26;;;;;;;5.20;2.70;;;;;;;11.01;89.45;97378.59;5090158;28;20531;-80
2024/02/05 03:41:52;;;;;;;9.23;2.80;;;;;;;10.96;90.28;97388.72;5091713;28;20035;-81
2024/02/05 03:44:18;;;;;;;2.78;1.70;;;;;;;11.01;88.75;97385.75;5073288;28;20115;-80
2024/02/05 03:46:44;;;;;;;4.43;2.33;;;;;;;11.04;87.75;97398.94;5073471;28;20063;-79
2024/02/05 03:49:10;;;;;;;5.43;2.50;;;;;;;11.03;88.16;97392.72;5090068;28;20028;-79
2024/02/05 03:51:36;;;;;;;3.65;1.88;;;;;;;11.29;83.83;97388.28;5072785;28;20028;-80
2024/02/05 03:54:04;;;;;;;2.67;1.90;;;;;;;11.33;82.52;97385.31;5090569;28;20471;-80
2024/02/05 03:56:30;;;;;;;2.45;1.63;;;;;;;11.42;80.56;97387.34;5090082;28;20020;-80
2024/02/05 03:58:56;;;;;;;1.67;1.40;;;;;;;11.47;79.81;97399.59;5072967;28;20080;-80
2024/02/05 04:01:22;;;;;;;2.67;1.45;;;;;;;11.64;77.16;97404.66;5091317;28;20035;-80
2024/02/05 04:03:48;;;;;;;4.07;1.30;;;;;;;11.84;75.00;97398.81;5072824;28;20024;-80
2024/02/05 04:06:14;;;;;;;2.78;1.50;;;;;;;12.00;72.68;97396.75;5089480;28;20031;-80
2024/02/05 04:08:40;;;;;;;2.88;1.55;;;;;;;12.21;71.10;97397.94;5090966;28;20024;-80
2024/02/05 04:11:05;;;;;;;2.42;1.38;;;;;;;12.23;70.16;97387.09;5094493;28;20031;-79
2024/02/05 04:13:31;;;;;;;6.20;1.50;;;;;;;12.40;68.48;97384.06;5093474;28;20024;-79
2024/02/05 04:15:57;;;;;;;3.00;1.70;;;;;;;12.34;68.45;97385.38;5076481;28;20101;-80
2024/02/05 04:18:23;;;;;;;3.47;1.60;;;;;;;12.40;68.23;97400.16;5094529;28;20460;-79
2024/02/05 04:20:52;;;;;;;4.03;1.77;;;;;;;12.30;69.00;97418.75;5076330;28;20119;-79
2024/02/05 04:26:39;;;;;;;3.38;1.85;;;;;;;12.26;69.22;97409.22;5094524;28;20100;-81
2024/02/05 04:29:14;;;;;;;2.75;2.00;;;;;;;12.28;69.61;97412.63;5093234;28;20032;-80
2024/02/05 04:31:39;;;;;;;3.30;1.50;;;;;;;12.26;69.38;97400.31;5093149;28;20084;-80
2024/02/05 04:34:05;;;;;;;3.58;2.45;;;;;;;12.25;69.90;97411.97;5077767;28;20024;-81
2024/02/05 04:36:30;;;;;;;3.65;2.08;;;;;;;12.26;69.35;97401.16;5092851;28;20031;-79
2024/02/05 04:38:56;;;;;;;4.47;2.10;;;;;;;12.18;70.42;97400.00;5092896;28;20035;-80
2024/02/05 04:41:21;;;;;;;4.10;2.05;;;;;;;11.99;71.83;97395.06;5093077;28;20047;-81
2024/02/05 04:43:47;;;;;;;3.60;1.88;;;;;;;12.10;70.58;97388.94;5075904;28;20024;-80
2024/02/05 04:46:13;;;;;;;5.38;2.30;;;;;;;12.06;71.31;97388.28;5092854;28;20471;-79
2024/02/05 04:48:38;;;;;;;5.07;2.47;;;;;;;12.00;71.99;97401.28;5092734;28;20190;-79
2024/02/05 04:51:13;;;;;;;4.88;2.83;;;;;;;12.02;72.21;97396.66;5092603;28;20024;-79
2024/02/05 04:53:40;;;;;;;7.05;2.42;;;;;;;12.05;71.21;97388.41;5075794;28;20031;-79
2024/02/05 04:56:05;;;;;;;3.70;2.35;;;;;;;12.13;71.01;97413.72;5092498;28;20564;-78
2024/02/05 04:58:31;;;;;;;5.20;2.88;;;;;;;12.13;70.35;97408.34;5059514;28;20028;-81
2024/02/05 05:00:57;;;;;;;4.72;2.50;;;;;;;12.31;69.70;97412.41;5072203;28;20021;-80
2024/02/05 05:03:22;;;;;;;4.53;2.30;;;;;;;12.33;69.33;97423.91;5055656;28;20478;-80
2024/02/05 05:05:48;;;;;;;4.93;2.70;;;;;;;12.23;68.67;97409.44;5055561;28;20111;-79
2024/02/05 05:08:13;;;;;;;6.68;2.90;;;;;;;12.33;68.79;97418.53;5055560;28;20024;-79
2024/02/05 05:10:39;;;;;;;8.88;3.15;;;;;;;12.29;68.91;97414.34;5055389;28;20047;-80
2024/02/05 05:13:05;;;;;;;4.60;2.13;;;;;;;12.35;68.74;97410.38;5056125;28;20025;-81
2024/02/05 05:15:31;;;;;;;5.57;2.83;;;;;;;12.37;68.15;97414.66;5074722;28;20100;-81
2024/02/05 05:17:57;;;;;;;5.40;2.95;;;;;;;12.39;67.96;97415.44;5075087;28;20040;-84
2024/02/05 05:20:23;;;;;;;5.18;2.42;;;;;;;12.38;68.08;97416.38;5060757;28;20024;-83
2024/02/05 05:22:48;;;;;;;6.07;2.95;;;;;;;12.41;67.92;97424.22;5068123;28;20031;-85
2024/02/05 05:25:14;;;;;;;4.82;3.22;;;;;;;12.35;67.75;97419.28;5084461;28;20066;-85
2024/02/05 05:27:39;;;;;;;6.20;3.22;;;;;;;12.35;68.16;97435.38;5087601;28;20441;-85
2024/02/05 05:30:07;;;;;;;23.15;11.30;;;;;;;12.43;67.30;97427.63;5070140;28;20032;-84
2024/02/05 05:32:33;;;;;;;19.13;9.38;;;;;;;12.40;67.04;97422.47;5085021;28;20050;-84
2024/02/05 05:34:58;;;;;;;9.65;3.75;;;;;;;12.34;67.61;97428.28;5062830;28;20511;-83
2024/02/05 05:37:27;;;;;;;12.77;7.05;;;;;;;12.26;67.78;97414.56;5069965;28;20127;-87
2024/02/05 05:39:53;;;;;;;20.70;10.60;;;;;;;12.25;68.32;97430.75;5065614;28;20023;-84
2024/02/05 05:42:19;;;;;;;12.90;6.05;;;;;;;12.30;68.08;97439.34;5082889;28;20020;-84
2024/02/05 05:44:44;;;;;;;10.55;4.43;;;;;;;12.34;67.40;97422.91;5062117;28;20059;-83
2024/02/05 05:47:10;;;;;;;5.75;3.40;;;;;;;12.35;66.60;97419.28;5060345;28;20044;-83
2024/02/05 05:49:36;;;;;;;7.05;3.42;;;;;;;12.35;67.17;97429.16;5076076;28;20528;-75
2024/02/05 05:52:01;;;;;;;13.13;5.03;;;;;;;12.46;66.14;97440.81;5067302;28;20028;-93
2024/02/05 05:54:30;;;;;;;10.85;4.80;;;;;;;12.47;65.08;97401.44;5082031;28;20118;-94
2024/02/05 05:56:55;;;;;;;6.60;3.70;;;;;;;12.51;64.69;97419.06;5094867;28;20039;-92
2024/02/05 05:59:22;;;;;;;8.68;3.38;;;;;;;12.70;63.42;97423.94;5076678;28;20028;-94
2024/02/05 06:01:54;;;;;;;13.10;4.60;;;;;;;12.69;63.42;97417.72;5069784;28;20481;-94
2024/02/05 06:04:20;;;;;;;9.97;4.70;;;;;;;12.69;62.26;97409.66;5079007;28;20715;-92
2024/02/05 06:06:58;;;;;;;9.00;4.45;;;;;;;12.90;62.07;97437.63;5085952;28;20023;-94
2024/02/05 06:09:26;;;;;;;6.85;3.92;;;;;;;12.99;61.42;97441.47;5084562;28;20109;-85
2024/02/05 06:11:53;;;;;;;8.45;3.97;;;;;;;13.00;60.09;97410.97;5062052;28;20496;-93
2024/02/05 06:14:19;;;;;;;11.70;4.53;;;;;;;13.25;59.98;97445.81;5069695;28;20468;-94
2024/02/05 06:16:44;;;;;;;10.55;5.30;;;;;;;13.28;59.87;97432.16;5079299;28;20055;-90
2024/02/05 06:19:17;;;;;;;9.57;4.65;;;;;;;13.24;59.10;97436.03;5083078;28;20024;-95
2024/02/05 06:21:43;;;;;;;9.60;4.47;;;;;;;13.29;58.53;97409.69;5078990;28;20452;-93
2024/02/05 06:24:09;;;;;;;14.20;4.82;;;;;;;13.53;58.41;97450.81;5077761;28;20031;-93
2024/02/05 06:26:35;;;;;;;15.40;5.20;;;;;;;13.56;57.97;97442.56;5077905;28;20206;-93
2024/02/05 06:29:01;;;;;;;8.75;4.22;;;;;;;13.51;57.65;97408.91;5070140;28;20042;-94
2024/02/05 06:31:27;;;;;;;9.98;5.05;;;;;;;13.46;57.40;97401.22;5074824;28;20051;-91
2024/02/05 06:33:59;;;;;;;14.07;5.18;;;;;;;13.75;56.42;97404.34;5083386;28;20028;-94
2024/02/05 06:36:25;;;;;;;12.15;5.60;;;;;;;14.20;54.76;97399.06;5088061;28;20044;-94
2024/02/05 06:38:50;;;;;;;11.43;5.47;;;;;;;14.56;54.04;97412.31;5085247;28;20074;-93
2024/02/05 06:41:16;;;;;;;8.40;3.95;;;;;;;14.93;52.71;97405.69;5071144;28;20118;-95
2024/02/05 06:43:42;;;;;;;10.18;5.18;;;;;;;15.33;51.84;97397.84;5065965;28;20043;-93
2024/02/05 06:51:31;;;;;;;4.78;2.78;;;;;;;15.20;50.23;97378.28;5175795;22;20140;-90
2024/02/05 06:54:02;;;;;;;10.85;4.80;;;;;;;15.04;50.76;97383.25;5019451;28;20022;-92
2024/02/05 06:56:35;;;;;;;5.97;3.47;;;;;;;14.97;50.88;97390.13;5071795;22;20100;-92
2024/02/05 06:59:07;;;;;;;8.75;4.55;;;;;;;14.99;50.93;97385.47;5021624;28;20056;-89
2024/02/05 07:01:39;;;;;;;9.13;4.03;;;;;;;15.25;51.13;97438.06;5164133;23;20426;-88
2024/02/05 07:04:05;;;;;;;9.30;5.43;;;;;;;14.95;52.37;97429.81;4992398;28;20033;-84
2024/02/05 07:06:31;;;;;;;9.65;4.80;;;;;;;15.13;51.71;97433.69;5005361;28;20034;-85
2024/02/05 07:08:56;;;;;;;9.50;4.60;;;;;;;15.39;51.56;97448.56;4976900;28;20125;-85
2024/02/05 07:11:22;;;;;;;10.95;4.95;;;;;;;15.32;51.46;97441.94;4976164;28;20137;-86
2024/02/05 07:13:48;;;;;;;12.40;5.10;;;;;;;15.05;51.45;97414.59;4975506;28;20148;-86
2024/02/05 07:16:16;;;;;;;8.18;4.80;;;;;;;15.21;51.88;97452.75;4985943;28;20038;-86
2024/02/05 07:18:42;;;;;;;6.60;4.18;;;;;;;15.22;51.78;97454.50;4994121;28;20060;-86
2024/02/05 07:21:13;;;;;;;10.05;5.68;;;;;;;15.29;51.66;97450.28;4991499;28;20473;-85
2024/02/05 07:23:39;;;;;;;8.88;5.60;;;;;;;15.12;50.99;97418.50;4992002;28;20033;-87
2024/02/05 07:26:05;;;;;;;11.32;4.80;;;;;;;15.35;50.57;97425.53;4984864;28;20034;-86
2024/02/05 07:28:31;;;;;;;12.65;5.43;;;;;;;15.27;50.94;97424.44;4980367;28;20039;-85
2024/02/05 07:30:57;;;;;;;12.60;5.53;;;;;;;15.24;51.14;97444.44;4987221;28;20449;-84
2024/02/05 07:33:23;;;;;;;9.82;5.22;;;;;;;15.26;50.85;97439.75;4990741;28;20030;-85
2024/02/05 07:35:49;;;;;;;15.15;5.47;;;;;;;15.40;50.85;97444.03;4984780;28;20037;-90
2024/02/05 07:38:14;;;;;;;11.43;5.55;;;;;;;15.55;50.51;97457.13;4980714;28;20387;-90
2024/02/05 07:40:40;;;;;;;14.48;7.10;;;;;;;15.76;49.75;97446.34;4983103;28;20031;-89
2024/02/05 07:43:05;;;;;;;18.73;7.90;;;;;;;16.09;49.04;97437.22;4997317;28;20061;-86
2024/02/05 07:45:31;;;;;;;19.27;10.05;;;;;;;16.83;47.49;97430.69;4993194;28;20026;-89
2024/02/05 07:47:57;;;;;;;13.70;7.18;;;;;;;17.13;46.74;97427.97;4995282;28;20053;-88
2024/02/05 07:50:22;;;;;;;10.43;5.68;;;;;;;17.30;46.00;97421.03;4983357;28;20493;-89
2024/02/05 07:52:48;;;;;;;15.73;6.30;;;;;;;17.25;46.12;97417.91;5002085;28;20575;-91
2024/02/05 07:55:17;;;;;;;12.70;5.60;;;;;;;17.25;46.03;97426.00;5023639;28;20097;-93
2024/02/05 08:00:49;;;;;;;9.57;5.10;;;;;;;17.29;45.52;97376.03;5035167;28;20111;-93
2024/02/05 08:06:47;;;;;;;10.60;5.40;;;;;;;17.90;43.80;97376.69;5049571;28;20542;-92
2024/02/05 08:09:21;;;;;;;8.90;4.88;;;;;;;18.22;42.93;97376.31;5009448;28;20064;-93
2024/02/05 08:11:46;;;;;;;9.43;5.65;;;;;;;18.69;41.80;97345.53;5003875;28;20034;-90
2024/02/05 08:14:12;;;;;;;18.73;5.20;;;;;;;19.09;41.57;97390.38;4991257;28;20145;-91
2024/02/05 08:16:38;;;;;;;9.68;5.28;;;;;;;19.39;41.24;97399.06;5014305;28;20067;-92
2024/02/05 08:19:04;;;;;;;11.40;4.82;;;;;;;19.69;40.30;97414.13;5009682;28;20061;-91
2024/02/05 08:21:30;;;;;;;12.43;5.60;;;;;;;20.06;39.70;97394.13;5023190;28;20025;-93
2024/02/05 08:23:56;;;;;;;9.50;5.30;;;;;;;19.97;39.69;97368.75;5006331;28;20044;-91
2024/02/05 08:26:21;;;;;;;9.27;4.85;;;;;;;20.24;38.76;97355.00;5004455;28;20040;-91
2024/02/05 08:28:47;;;;;;;12.10;5.65;;;;;;;21.30;37.90;97389.94;5006785;28;20061;-92
2024/02/05 08:31:13;;;;;;;11.18;5.63;;;;;;;22.36;36.32;97401.84;4999872;28;20120;-92
2024/02/05 08:33:39;;;;;;;11.57;5.60;;;;;;;21.37;36.77;97401.03;4983174;28;20108;-93
2024/02/05 08:36:05;;;;;;;11.93;5.85;;;;;;;21.32;37.16;97381.63;5000559;28;20033;-92
2024/02/05 08:38:30;;;;;;;10.27;5.93;;;;;;;21.21;36.96;97362.88;4986795;28;20030;-91
2024/02/05 08:40:56;;;;;;;10.40;6.07;;;;;;;20.56;37.59;97376.16;4982974;28;20113;-89
2024/02/05 08:43:23;;;;;;;15.73;6.22;;;;;;;20.63;37.83;97401.69;5002326;28;20037;-94
2024/02/05 08:45:49;;;;;;;13.93;6.05;;;;;;;20.78;37.41;97381.03;5021974;28;20056;-91
2024/02/05 08:48:14;;;;;;;11.02;6.32;;;;;;;20.73;37.59;97405.16;5006994;28;20125;-91
2024/02/05 08:50:40;;;;;;;14.45;5.70;;;;;;;21.46;37.06;97400.88;4998162;28;20212;-91
2024/02/05 08:53:06;;;;;;;8.05;5.00;;;;;;;22.66;35.69;97414.78;4988941;28;20129;-91
2024/02/05 08:55:32;;;;;;;11.60;5.65;;;;;;;22.67;34.88;97398.22;4982542;28;20069;-90
2024/02/05 08:57:59;;;;;;;11.63;5.75;;;;;;;22.54;35.47;97418.84;4997383;28;20437;-91
2024/02/05 09:00:25;;;;;;;10.95;5.68;;;;;;;22.93;34.58;97397.13;4987243;28;20056;-86
2024/02/05 09:02:54;;;;;;;11.70;5.80;;;;;;;22.73;35.05;97396.69;4980872;28;20022;-89
2024/02/05 09:05:20;;;;;;;12.75;6.13;;;;;;;22.82;35.12;97392.91;5007583;28;20518;-89
2024/02/05 09:07:47;;;;;;;7.65;4.90;;;;;;;23.12;34.53;97370.28;4990466;28;20501;-88
2024/02/05 09:10:13;;;;;;;10.95;5.43;;;;;;;24.01;33.25;97386.16;4996304;28;20029;-88
2024/02/05 09:12:38;;;;;;;9.18;4.75;;;;;;;22.95;33.40;97357.72;4993259;28;20029;-82
2024/02/05 09:15:05;;;;;;;8.20;4.57;;;;;;;22.68;34.23;97355.44;4988936;28;20026;-84
2024/02/05 09:17:31;;;;;;;7.18;4.35;;;;;;;23.18;33.69;97349.63;4998323;28;20037;-86
2024/02/05 09:19:56;;;;;;;14.65;4.90;;;;;;;22.26;34.34;97354.81;4990345;28;20025;-85
2024/02/05 09:22:22;;;;;;;8.20;4.78;;;;;;;22.00;35.36;97353.13;4981062;28;20033;-83
2024/02/05 09:24:48;;;;;;;7.57;4.18;;;;;;;22.12;34.87;97359.09;4994020;28;20032;-81
2024/02/05 09:27:14;;;;;;;11.23;4.93;;;;;;;22.38;34.99;97359.75;4986887;28;20064;-82
2024/02/05 09:29:39;;;;;;;11.98;6.85;;;;;;;23.56;34.28;97351.47;4997725;28;20314;-81
2024/02/05 09:32:05;;;;;;;7.57;4.18;;;;;;;24.13;32.77;97343.72;4980645;28;20369;-81
2024/02/05 09:34:31;;;;;;;6.90;3.92;;;;;;;23.52;32.91;97344.69;4988226;28;20033;-83
2024/02/05 09:36:57;;;;;;;7.22;4.10;;;;;;;22.54;34.20;97342.50;4998854;28;20367;-84
2024/02/05 09:39:23;;;;;;;6.47;3.63;;;;;;;21.83;34.76;97343.25;4994103;28;20040;-83
2024/02/05 09:41:50;;;;;;;7.82;4.97;;;;;;;22.87;34.00;97344.13;5001409;28;20029;-84
2024/02/05 09:44:16;;;;;;;9.45;3.78;;;;;;;23.72;32.92;97353.22;4985330;28;20026;-84
2024/02/05 09:46:55;;;;;;;6.07;3.80;;;;;;;24.53;32.00;97336.16;4984309;28;20029;-84
2024/02/05 09:49:21;;;;;;;15.77;3.80;;;;;;;24.16;31.81;97317.91;4987819;28;20116;-85
2024/02/05 09:51:48;;;;;;;11.23;4.63;;;;;;;24.04;32.19;97338.47;4980947;28;20642;-85
2024/02/05 09:54:16;;;;;;;5.30;3.10;;;;;;;24.87;30.75;97320.06;4983253;28;20088;-84
2024/02/05 09:56:42;;;;;;;6.60;3.50;;;;;;;24.00;31.34;97313.38;4995442;28;20033;-83
2024/02/05 09:59:11;;;;;;;8.25;3.50;;;;;;;24.13;31.83;97316.38;4996180;28;20145;-84
2024/02/05 10:01:38;;;;;;;5.45;3.28;;;;;;;23.93;31.77;97290.59;4992132;28;20141;-84
2024/02/05 10:04:09;;;;;;;7.07;3.70;;;;;;;23.85;32.07;97297.97;4992515;28;20040;-83
2024/02/05 10:06:40;;;;;;;6.60;3.33;;;;;;;24.26;31.12;97296.63;4997660;28;20081;-84
2024/02/05 10:09:10;;;;;;;8.18;3.47;;;;;;;24.15;31.51;97289.69;4992254;28;20088;-83
2024/02/05 10:11:43;;;;;;;9.20;3.50;;;;;;;23.01;32.20;97307.91;5002459;28;20036;-84
2024/02/05 10:14:10;;;;;;;7.05;3.35;;;;;;;22.78;32.78;97297.97;4994445;28;20531;-84
2024/02/05 10:16:39;;;;;;;6.53;3.33;;;;;;;22.96;32.79;97310.31;4988289;28;20123;-85
2024/02/05 10:19:05;;;;;;;6.90;3.58;;;;;;;22.62;32.67;97307.88;4985754;28;20477;-85
2024/02/05 10:21:32;;;;;;;7.25;3.67;;;;;;;23.34;32.27;97280.44;4994107;28;20029;-85
2024/02/05 10:26:44;;;;;;;9.95;4.28;;;;;;;25.20;30.94;97265.72;5007616;28;20060;-83
2024/02/05 10:29:13;;;;;;;6.10;3.55;;;;;;;25.69;29.78;97250.25;4983446;28;20021;-85
2024/02/05 10:31:48;;;;;;;6.63;3.45;;;;;;;25.90;29.16;97246.66;4992442;28;20542;-85
2024/02/05 10:34:19;;;;;;;8.50;3.90;;;;;;;25.54;29.38;97262.31;4996728;28;20523;-84
2024/02/05 10:36:45;;;;;;;8.10;3.95;;;;;;;25.86;29.75;97267.28;4991439;28;20029;-81
2024/02/05 10:39:18;;;;;;;6.15;3.75;;;;;;;25.88;29.49;97249.59;5000194;28;20033;-84
2024/02/05 10:41:48;;;;;;;8.75;4.45;;;;;;;25.70;29.42;97220.97;4997627;28;20025;-83
2024/02/05 10:44:30;;;;;;;;;;;;;;;;;;;;;
2024/02/05 10:47:19;;;;;;;5.57;3.93;;;;;;;26.51;28.49;97230.44;4988952;28;20091;-85
2024/02/05 10:49:46;;;;;;;10.50;5.97;;;;;;;27.02;28.63;97251.00;5000553;28;20120;-84
2024/02/05 10:52:13;;;;;;;8.88;4.00;;;;;;;28.42;27.31;97246.38;4987028;28;20064;-86
2024/02/05 10:54:39;;;;;;;7.32;3.63;;;;;;;28.66;26.51;97240.19;4986806;28;20030;-86
2024/02/05 10:57:06;;;;;;;10.90;3.70;;;;;;;27.97;27.02;97224.13;4978229;28;20034;-85
2024/02/05 11:00:31;;;;;;;6.30;3.50;;;;;;;27.37;26.81;97191.28;4995772;28;20025;-91
2024/02/05 11:03:09;;;;;;;6.53;3.67;;;;;;;26.56;27.60;97205.97;4979683;28;20069;-84
2024/02/05 11:05:38;;;;;;;10.35;3.38;;;;;;;26.35;27.94;97213.25;4966774;28;20133;-85
2024/02/05 11:08:05;;;;;;;6.50;3.20;;;;;;;26.88;28.01;97219.06;4966985;28;20031;-85
2024/02/05 11:10:33;;;;;;;9.00;3.83;;;;;;;27.35;27.66;97216.22;4972070;28;20030;-84
2024/02/05 11:12:59;;;;;;;6.03;3.33;;;;;;;27.67;27.04;97203.63;4968237;28;20030;-86
2024/02/05 11:15:31;;;;;;;6.50;2.67;;;;;;;28.00;26.78;97207.22;4963131;28;20406;-86
2024/02/05 11:17:57;;;;;;;7.43;3.65;;;;;;;28.56;26.33;97201.22;4957422;28;20475;-86
2024/02/05 11:20:29;;;;;;;3.95;2.80;;;;;;;28.09;26.53;97191.34;4980481;28;20130;-86
2024/02/05 11:22:56;;;;;;;4.43;3.00;;;;;;;27.98;26.14;97184.59;4969974;28;20038;-86
2024/02/05 11:25:22;;;;;;;4.68;2.88;;;;;;;27.39;27.00;97189.19;4973031;28;20035;-87
2024/02/05 11:27:48;;;;;;;7.82;3.00;;;;;;;27.19;27.05;97183.66;4981614;28;20039;-86
2024/02/05 11:30:17;;;;;;;5.85;3.03;;;;;;;26.68;27.27;97182.38;4987135;28;20050;-86
2024/02/05 11:32:42;;;;;;;4.13;2.80;;;;;;;27.25;27.42;97182.84;4955210;28;20035;-86
2024/02/05 11:35:15;;;;;;;4.72;3.05;;;;;;;27.83;27.46;97169.38;4987639;28;20088;-85
2024/02/05 11:37:46;;;;;;;4.78;2.95;;;;;;;28.32;26.17;97186.25;4969981;28;20475;-85
2024/02/05 11:40:22;;;;;;;3.03;2.20;;;;;;;28.28;26.02;97168.47;4959437;28;20034;-88
2024/02/05 11:43:05;;;;;;;3.95;2.65;;;;;;;28.89;25.76;97179.09;4970934;28;20121;-87
2024/02/05 11:45:32;;;;;;;7.68;2.88;;;;;;;27.68;26.82;97176.97;4963871;28;20039;-86
2024/02/05 11:48:03;;;;;;;6.55;2.60;;;;;;;27.85;26.75;97183.72;4961501;28;20403;-87
2024/02/05 11:50:31;;;;;;;6.43;2.28;;;;;;;28.26;26.52;97170.59;4960042;28;20030;-89